Time;durP1;ratioP1;P1;durP2;ratioP2;P2;SDS_P1;SDS_P2;PMS_P1;PMS_P2;Temp;Humidity;BMP_temperature;BMP_pressure;BME280_temperature;BME280_humidity;BME280_pressure;Samples;Min_cycle;Max_cycle;Signal;HPM_P1;HPM_P2
2023/08/16 00:01:13;;;;;;;4.17;2.70;;;;;;;;;;5095267;28;20456;-64
2023/08/16 00:03:42;;;;;;;2.93;2.70;;;;;;;;;;5095809;28;20751;-63
2023/08/16 00:06:09;;;;;;;2.70;2.60;;;;;;;;;;5094497;28;20484;-63
2023/08/16 00:08:35;;;;;;;2.93;2.83;;;;;;;;;;5094668;28;20436;-63
2023/08/16 00:11:01;;;;;;;3.40;3.00;;;;;;;;;;5095352;28;20424;-63
2023/08/16 00:13:27;;;;;;;3.63;3.20;;;;;;;;;;5095542;28;20442;-63
2023/08/16 00:15:55;;;;;;;2.80;2.60;;;;;;;;;;5093783;28;20437;-63
2023/08/16 00:18:21;;;;;;;4.60;2.83;;;;;;;;;;5095011;28;20410;-63
2023/08/16 00:20:47;;;;;;;3.20;3.00;;;;;;;;;;5095167;28;20410;-62
2023/08/16 00:23:15;;;;;;;3.17;3.00;;;;;;;;;;5095095;28;20444;-63
2023/08/16 00:25:41;;;;;;;3.00;3.00;;;;;;;;;;5094616;28;20479;-63
2023/08/16 00:28:07;;;;;;;3.30;3.00;;;;;;;;;;5094901;28;20471;-63
2023/08/16 00:30:33;;;;;;;5.90;2.97;;;;;;;;;;5094963;28;20409;-63
2023/08/16 00:32:59;;;;;;;3.33;3.23;;;;;;;;;;5094942;28;20419;-63
2023/08/16 00:35:25;;;;;;;3.97;3.67;;;;;;;;;;5093975;28;20417;-63
2023/08/16 00:37:52;;;;;;;4.90;3.23;;;;;;;;;;5094522;28;20436;-63
2023/08/16 00:40:18;;;;;;;3.70;3.40;;;;;;;;;;5095018;28;20826;-63
2023/08/16 00:42:46;;;;;;;3.50;3.20;;;;;;;;;;5094698;28;20442;-63
2023/08/16 00:45:12;;;;;;;3.37;3.23;;;;;;;;;;5094744;28;20520;-63
2023/08/16 00:47:41;;;;;;;3.20;2.90;;;;;;;;;;5094070;28;20467;-63
2023/08/16 00:50:07;;;;;;;7.17;3.47;;;;;;;;;;5094508;28;20408;-63
2023/08/16 00:52:33;;;;;;;3.30;3.10;;;;;;;;;;5094394;28;20502;-63
2023/08/16 00:54:59;;;;;;;2.83;2.73;;;;;;;;;;5094543;28;20967;-63
2023/08/16 00:57:25;;;;;;;3.57;3.37;;;;;;;;;;5094331;28;20481;-62
2023/08/16 00:59:51;;;;;;;4.80;3.60;;;;;;;;;;5094611;28;20442;-63
2023/08/16 01:02:19;;;;;;;3.80;3.50;;;;;;;;;;5094418;28;20923;-63
2023/08/16 01:04:46;;;;;;;3.33;3.10;;;;;;;;;;5094103;28;20427;-63
2023/08/16 01:07:12;;;;;;;3.90;3.77;;;;;;;;;;5094113;28;20576;-63
2023/08/16 01:09:39;;;;;;;9.80;3.40;;;;;;;;;;5093509;28;20435;-62
2023/08/16 01:12:09;;;;;;;4.17;3.43;;;;;;;;;;5093356;28;20444;-63
2023/08/16 01:14:50;;;;;;;4.23;4.00;;;;;;;;;;5094055;28;20397;-63
2023/08/16 01:17:16;;;;;;;6.80;4.10;;;;;;;;;;5093804;28;20490;-63
2023/08/16 01:19:44;;;;;;;4.63;4.33;;;;;;;;;;5093870;28;20951;-63
2023/08/16 01:22:36;;;;;;;10.83;7.00;;;;;;;;;;5093978;28;20422;-63
2023/08/16 01:25:08;;;;;;;10.53;7.97;;;;;;;;;;5091237;28;20536;-63
2023/08/16 01:27:35;;;;;;;7.00;4.60;;;;;;;;;;5093939;28;20545;-63
2023/08/16 01:30:05;;;;;;;4.53;4.23;;;;;;;;;;5094028;28;20481;-63
2023/08/16 01:32:32;;;;;;;5.97;4.20;;;;;;;;;;5094026;28;20428;-63
2023/08/16 01:34:58;;;;;;;3.93;3.73;;;;;;;;;;5093578;28;20920;-63
2023/08/16 01:37:24;;;;;;;4.30;4.00;;;;;;;;;;5093733;28;20422;-63
2023/08/16 01:39:51;;;;;;;4.57;4.33;;;;;;;;;;5093529;28;20904;-63
2023/08/16 01:42:17;;;;;;;5.57;4.90;;;;;;;;;;5094054;28;20399;-63
2023/08/16 01:44:48;;;;;;;9.57;4.40;;;;;;;;;;5093541;28;20475;-63
2023/08/16 01:47:15;;;;;;;4.90;4.50;;;;;;;;;;5093329;28;20483;-63
2023/08/16 01:49:42;;;;;;;10.37;4.83;;;;;;;;;;5093382;28;20421;-63
2023/08/16 01:52:08;;;;;;;9.73;4.90;;;;;;;;;;5093266;28;20435;-63
2023/08/16 01:54:34;;;;;;;6.27;4.57;;;;;;;;;;5093435;28;20405;-63
2023/08/16 01:57:00;;;;;;;12.07;5.37;;;;;;;;;;5093123;28;20951;-63
2023/08/16 01:59:26;;;;;;;8.00;4.23;;;;;;;;;;5093387;28;20413;-63
2023/08/16 02:01:54;;;;;;;4.03;3.67;;;;;;;;;;5093117;28;20544;-63
2023/08/16 02:04:20;;;;;;;5.53;3.63;;;;;;;;;;5093097;28;20512;-63
2023/08/16 02:06:46;;;;;;;7.60;4.63;;;;;;;;;;5093053;28;20541;-63
2023/08/16 02:09:12;;;;;;;4.50;3.73;;;;;;;;;;5091747;28;20954;-63
2023/08/16 02:11:38;;;;;;;4.60;4.20;;;;;;;;;;5092902;28;20684;-63
2023/08/16 02:14:03;;;;;;;7.90;4.63;;;;;;;;;;5092665;28;20416;-63
2023/08/16 02:16:29;;;;;;;4.13;3.73;;;;;;;;;;5092851;28;20427;-63
2023/08/16 02:18:58;;;;;;;4.07;3.70;;;;;;;;;;5092291;28;20907;-63
2023/08/16 02:21:26;;;;;;;4.27;3.70;;;;;;;;;;5092708;28;20430;-63
2023/08/16 02:23:52;;;;;;;8.90;3.90;;;;;;;;;;5092745;28;20577;-63
2023/08/16 02:26:18;;;;;;;3.87;3.67;;;;;;;;;;5092562;28;20415;-63
2023/08/16 02:28:44;;;;;;;3.90;3.67;;;;;;;;;;5092813;28;20442;-63
2023/08/16 02:31:10;;;;;;;5.17;4.43;;;;;;;;;;5092581;28;20439;-63
2023/08/16 02:33:36;;;;;;;7.27;4.63;;;;;;;;;;5092652;28;20442;-63
2023/08/16 02:36:02;;;;;;;5.90;4.30;;;;;;;;;;5092397;28;20423;-63
2023/08/16 02:38:31;;;;;;;4.17;3.90;;;;;;;;;;5092522;28;20454;-63
2023/08/16 02:40:57;;;;;;;4.57;4.23;;;;;;;;;;5091170;28;20420;-63
2023/08/16 02:43:23;;;;;;;3.97;3.77;;;;;;;;;;5092460;28;20414;-63
2023/08/16 02:45:49;;;;;;;4.30;3.90;;;;;;;;;;5092660;28;20399;-63
2023/08/16 02:48:15;;;;;;;4.60;4.40;;;;;;;;;;5092160;28;20470;-63
2023/08/16 02:50:41;;;;;;;3.80;3.60;;;;;;;;;;5092485;28;20700;-63
2023/08/16 02:53:11;;;;;;;4.03;3.80;;;;;;;;;;5092141;28;20437;-63
2023/08/16 02:55:39;;;;;;;4.73;4.30;;;;;;;;;;5092191;28;20410;-63
2023/08/16 02:58:05;;;;;;;3.70;3.60;;;;;;;;;;5090891;28;20446;-63
2023/08/16 03:00:32;;;;;;;4.63;4.30;;;;;;;;;;5091122;28;20546;-63
2023/08/16 03:03:00;;;;;;;4.07;3.97;;;;;;;;;;5092184;28;20520;-63
2023/08/16 03:05:28;;;;;;;4.77;4.50;;;;;;;;;;5092269;28;20429;-63
2023/08/16 03:07:57;;;;;;;4.73;4.30;;;;;;;;;;5092156;28;20894;-63
2023/08/16 03:10:25;;;;;;;5.33;4.93;;;;;;;;;;5090930;28;21029;-63
2023/08/16 03:12:51;;;;;;;6.33;4.60;;;;;;;;;;5092060;28;20435;-63
2023/08/16 03:15:17;;;;;;;6.80;5.50;;;;;;;;;;5090966;28;20511;-63
2023/08/16 03:17:43;;;;;;;5.87;4.90;;;;;;;;;;5092102;28;20420;-63
2023/08/16 03:20:09;;;;;;;4.93;4.60;;;;;;;;;;5092038;28;20438;-63
2023/08/16 03:22:38;;;;;;;6.63;6.23;;;;;;;;;;5092171;28;20425;-63
2023/08/16 03:25:04;;;;;;;6.43;5.93;;;;;;;;;;5092028;28;20933;-63
2023/08/16 03:27:30;;;;;;;6.57;6.03;;;;;;;;;;5091950;28;20479;-63
2023/08/16 03:29:56;;;;;;;6.30;5.90;;;;;;;;;;5092030;28;20503;-63
2023/08/16 03:32:24;;;;;;;6.10;5.70;;;;;;;;;;5094554;28;20793;-63
2023/08/16 03:34:50;;;;;;;7.03;6.17;;;;;;;;;;5095966;28;20415;-63
2023/08/16 03:37:16;;;;;;;6.70;6.00;;;;;;;;;;5095800;28;20436;-63
2023/08/16 03:39:42;;;;;;;7.00;6.40;;;;;;;;;;5095984;28;20419;-63
2023/08/16 03:42:08;;;;;;;6.03;5.47;;;;;;;;;;5095693;28;20411;-63
2023/08/16 03:44:34;;;;;;;6.00;5.40;;;;;;;;;;5095796;28;20427;-63
2023/08/16 03:47:00;;;;;;;6.93;5.23;;;;;;;;;;5095656;28;20458;-63
2023/08/16 03:49:26;;;;;;;6.87;6.30;;;;;;;;;;5095729;28;20432;-63
2023/08/16 03:51:53;;;;;;;5.50;5.13;;;;;;;;;;5095703;28;20822;-65
2023/08/16 03:54:18;;;;;;;5.93;5.30;;;;;;;;;;5095176;28;20457;-67
2023/08/16 03:56:45;;;;;;;5.90;5.47;;;;;;;;;;5095179;28;20458;-66
2023/08/16 03:59:10;;;;;;;6.50;5.53;;;;;;;;;;5094921;28;20846;-66
2023/08/16 04:01:39;;;;;;;5.70;5.03;;;;;;;;;;5095321;28;20424;-66
2023/08/16 04:04:05;;;;;;;6.50;5.87;;;;;;;;;;5094563;28;20485;-66
2023/08/16 04:06:31;;;;;;;5.63;5.10;;;;;;;;;;5095046;28;20896;-66
2023/08/16 04:08:59;;;;;;;6.73;5.50;;;;;;;;;;5094694;28;20414;-66
2023/08/16 04:11:27;;;;;;;8.87;5.07;;;;;;;;;;5092883;28;20420;-66
2023/08/16 04:13:53;;;;;;;5.67;5.47;;;;;;;;;;5094523;28;20457;-66
2023/08/16 04:16:19;;;;;;;5.50;5.00;;;;;;;;;;5093736;28;20466;-67
2023/08/16 04:18:50;;;;;;;5.53;5.23;;;;;;;;;;5094749;28;20416;-67
2023/08/16 04:21:16;;;;;;;4.53;4.13;;;;;;;;;;5095274;28;20772;-67
2023/08/16 04:23:42;;;;;;;6.07;5.50;;;;;;;;;;5095251;28;20435;-67
2023/08/16 04:26:10;;;;;;;4.87;4.63;;;;;;;;;;5095044;28;20919;-67
2023/08/16 04:28:36;;;;;;;5.77;5.33;;;;;;;;;;5094560;28;20482;-67
2023/08/16 04:31:04;;;;;;;5.63;5.33;;;;;;;;;;5094624;28;20408;-67
2023/08/16 04:33:30;;;;;;;5.70;5.40;;;;;;;;;;5094812;28;20898;-67
2023/08/16 04:35:56;;;;;;;10.90;5.80;;;;;;;;;;5095027;28;20412;-67
2023/08/16 04:38:22;;;;;;;7.27;6.53;;;;;;;;;;5094361;28;20439;-67
2023/08/16 04:40:53;;;;;;;6.07;5.40;;;;;;;;;;5093693;28;20975;-67
2023/08/16 04:43:19;;;;;;;6.33;5.80;;;;;;;;;;5093020;28;20443;-67
2023/08/16 04:45:46;;;;;;;7.80;6.17;;;;;;;;;;5094791;28;20421;-67
2023/08/16 04:48:12;;;;;;;7.43;6.30;;;;;;;;;;5093116;28;20473;-67
2023/08/16 04:50:38;;;;;;;6.07;5.67;;;;;;;;;;5094391;28;20427;-67
2023/08/16 04:53:06;;;;;;;6.77;5.80;;;;;;;;;;5094627;28;20972;-67
2023/08/16 04:55:32;;;;;;;7.30;6.70;;;;;;;;;;5094670;28;20431;-67
2023/08/16 04:57:58;;;;;;;5.30;5.10;;;;;;;;;;5094261;28;20965;-67
2023/08/16 05:00:25;;;;;;;6.80;6.40;;;;;;;;;;5094513;28;20447;-67
2023/08/16 05:02:51;;;;;;;6.10;5.70;;;;;;;;;;5094587;28;20416;-67
2023/08/16 05:05:17;;;;;;;6.97;6.27;;;;;;;;;;5094677;28;20427;-67
2023/08/16 05:07:42;;;;;;;6.97;6.47;;;;;;;;;;5094011;28;20502;-67
2023/08/16 05:10:09;;;;;;;11.20;6.50;;;;;;;;;;5093069;28;20426;-67
2023/08/16 05:12:35;;;;;;;6.20;5.83;;;;;;;;;;5093823;28;20451;-67
2023/08/16 05:15:00;;;;;;;7.43;6.83;;;;;;;;;;5094109;28;20412;-67
2023/08/16 05:17:26;;;;;;;8.23;6.47;;;;;;;;;;5094086;28;20803;-67
2023/08/16 05:19:52;;;;;;;6.73;6.17;;;;;;;;;;5094154;28;20424;-67
2023/08/16 05:22:19;;;;;;;7.33;6.73;;;;;;;;;;5092670;28;20442;-67
2023/08/16 05:24:47;;;;;;;6.10;5.80;;;;;;;;;;5093858;28;20413;-67
2023/08/16 05:27:13;;;;;;;6.30;5.87;;;;;;;;;;5093505;28;20484;-67
2023/08/16 05:29:42;;;;;;;7.13;6.50;;;;;;;;;;5093319;28;20432;-67
2023/08/16 05:32:08;;;;;;;6.43;5.93;;;;;;;;;;5092676;28;20415;-67
2023/08/16 05:34:34;;;;;;;6.60;6.17;;;;;;;;;;5093661;28;20432;-67
2023/08/16 05:37:00;;;;;;;5.93;5.60;;;;;;;;;;5093656;28;20406;-67
2023/08/16 05:39:26;;;;;;;6.33;5.73;;;;;;;;;;5093553;28;20456;-67
2023/08/16 05:41:52;;;;;;;7.00;6.30;;;;;;;;;;5093541;28;20397;-67
2023/08/16 05:44:18;;;;;;;6.30;5.80;;;;;;;;;;5093342;28;20443;-67
2023/08/16 05:46:45;;;;;;;6.17;5.70;;;;;;;;;;5092689;28;20495;-67
2023/08/16 05:49:10;;;;;;;10.20;6.57;;;;;;;;;;5093228;28;20453;-67
2023/08/16 05:51:36;;;;;;;6.00;5.60;;;;;;;;;;5093281;28;20436;-67
2023/08/16 05:54:03;;;;;;;6.07;5.47;;;;;;;;;;5092364;28;20402;-67
2023/08/16 05:56:29;;;;;;;5.53;5.00;;;;;;;;;;5093113;28;20528;-67
2023/08/16 05:58:57;;;;;;;5.93;5.33;;;;;;;;;;5092775;28;20902;-67
2023/08/16 06:01:23;;;;;;;6.50;4.90;;;;;;;;;;5092837;28;20419;-67
2023/08/16 06:03:49;;;;;;;5.13;4.83;;;;;;;;;;5092944;28;20416;-67
2023/08/16 06:06:15;;;;;;;5.83;5.30;;;;;;;;;;5092657;28;20916;-67
2023/08/16 06:08:41;;;;;;;4.60;4.40;;;;;;;;;;5092552;28;20489;-67
2023/08/16 06:11:08;;;;;;;5.10;4.80;;;;;;;;;;5092871;28;20404;-67
2023/08/16 06:13:36;;;;;;;10.40;5.10;;;;;;;;;;5092563;28;20476;-67
2023/08/16 06:16:02;;;;;;;5.93;4.20;;;;;;;;;;5092239;28;20526;-67
2023/08/16 06:18:28;;;;;;;4.27;4.07;;;;;;;;;;5092678;28;20474;-67
2023/08/16 06:20:54;;;;;;;6.73;4.90;;;;;;;;;;5092539;28;20419;-67
2023/08/16 06:23:20;;;;;;;5.27;4.20;;;;;;;;;;5092581;28;20425;-67
2023/08/16 06:25:46;;;;;;;5.27;4.87;;;;;;;;;;5092758;28;20429;-67
2023/08/16 06:28:15;;;;;;;4.90;4.60;;;;;;;;;;5092712;28;20498;-67
2023/08/16 06:30:43;;;;;;;4.60;4.30;;;;;;;;;;5091739;28;20796;-67
2023/08/16 06:33:12;;;;;;;4.43;4.03;;;;;;;;;;5092713;28;20412;-66
2023/08/16 06:35:39;;;;;;;3.90;3.70;;;;;;;;;;5092461;28;20466;-67
2023/08/16 06:38:11;;;;;;;5.67;4.20;;;;;;;;;;5092595;28;20421;-67
2023/08/16 06:40:37;;;;;;;5.03;4.60;;;;;;;;;;5092659;28;20422;-66
2023/08/16 06:43:03;;;;;;;6.07;4.30;;;;;;;;;;5092495;28;20458;-66
2023/08/16 06:45:29;;;;;;;5.27;4.97;;;;;;;;;;5092515;28;20413;-66
2023/08/16 06:47:59;;;;;;;5.33;5.00;;;;;;;;;;5091663;28;20836;-67
2023/08/16 06:50:27;;;;;;;5.47;5.07;;;;;;;;;;5091081;28;20444;-67
2023/08/16 06:52:54;;;;;;;5.00;4.70;;;;;;;;;;5092393;28;20485;-67
2023/08/16 06:55:20;;;;;;;4.97;4.57;;;;;;;;;;5092231;28;20971;-66
2023/08/16 06:57:46;;;;;;;6.33;4.73;;;;;;;;;;5092322;28;20437;-66
2023/08/16 07:00:12;;;;;;;4.83;4.73;;;;;;;;;;5091491;28;20923;-66
2023/08/16 07:02:38;;;;;;;5.27;4.77;;;;;;;;;;5091918;28;20413;-66
2023/08/16 07:05:05;;;;;;;5.17;4.97;;;;;;;;;;5091887;28;20427;-66
2023/08/16 07:07:32;;;;;;;4.17;3.97;;;;;;;;;;5092166;28;20454;-66
2023/08/16 07:10:00;;;;;;;4.63;4.30;;;;;;;;;;5092448;28;20437;-67
2023/08/16 07:12:26;;;;;;;5.17;4.77;;;;;;;;;;5091623;28;20831;-67
2023/08/16 07:14:53;;;;;;;4.47;4.27;;;;;;;;;;5092355;28;20425;-66
2023/08/16 07:17:19;;;;;;;5.03;4.60;;;;;;;;;;5091937;28;20406;-66
2023/08/16 07:19:48;;;;;;;4.40;4.30;;;;;;;;;;5090711;28;20791;-66
2023/08/16 07:22:14;;;;;;;4.90;4.50;;;;;;;;;;5090536;28;20417;-66
2023/08/16 07:24:40;;;;;;;4.47;4.20;;;;;;;;;;5091412;28;20418;-66
2023/08/16 07:27:06;;;;;;;4.57;4.43;;;;;;;;;;5090910;28;20457;-66
2023/08/16 07:29:34;;;;;;;4.80;4.40;;;;;;;;;;5090607;28;20435;-66
2023/08/16 07:32:00;;;;;;;3.97;3.77;;;;;;;;;;5092387;28;20430;-66
2023/08/16 07:34:26;;;;;;;4.70;4.40;;;;;;;;;;5092113;28;20747;-66
2023/08/16 07:36:52;;;;;;;4.83;4.13;;;;;;;;;;5091619;28;20438;-66
2023/08/16 07:39:18;;;;;;;4.73;4.43;;;;;;;;;;5091478;28;20446;-66
2023/08/16 07:41:44;;;;;;;4.80;4.43;;;;;;;;;;5092103;28;20424;-66
2023/08/16 07:44:10;;;;;;;4.93;4.50;;;;;;;;;;5090318;28;20415;-66
2023/08/16 07:46:36;;;;;;;5.53;4.90;;;;;;;;;;5090668;28;20442;-66
2023/08/16 07:49:02;;;;;;;4.40;4.10;;;;;;;;;;5091682;28;20884;-66
2023/08/16 07:51:28;;;;;;;5.10;4.40;;;;;;;;;;5091882;28;20420;-66
2023/08/16 07:53:54;;;;;;;4.07;3.83;;;;;;;;;;5091933;28;20533;-66
2023/08/16 07:56:20;;;;;;;4.40;4.20;;;;;;;;;;5091311;28;20423;-66
2023/08/16 07:58:49;;;;;;;5.13;4.83;;;;;;;;;;5091799;28;20421;-66
2023/08/16 08:01:15;;;;;;;4.70;4.40;;;;;;;;;;5090242;28;20413;-67
2023/08/16 08:03:40;;;;;;;5.70;4.63;;;;;;;;;;5090621;28;20419;-66
2023/08/16 08:06:09;;;;;;;5.80;4.10;;;;;;;;;;5092009;28;20449;-66
2023/08/16 08:08:37;;;;;;;4.90;4.60;;;;;;;;;;5091356;28;21176;-67
2023/08/16 08:11:06;;;;;;;6.13;4.47;;;;;;;;;;5090489;28;20443;-67
2023/08/16 08:13:33;;;;;;;4.90;4.60;;;;;;;;;;5091663;28;20445;-67
2023/08/16 08:16:00;;;;;;;5.33;4.50;;;;;;;;;;5091201;28;20521;-67
2023/08/16 08:18:26;;;;;;;4.37;4.10;;;;;;;;;;5093872;28;20426;-67
2023/08/16 08:20:52;;;;;;;4.40;4.10;;;;;;;;;;5094838;28;20422;-67
2023/08/16 08:23:18;;;;;;;5.57;4.77;;;;;;;;;;5095227;28;20424;-67
2023/08/16 08:25:44;;;;;;;3.73;3.50;;;;;;;;;;5095310;28;20415;-67
2023/08/16 08:28:11;;;;;;;5.20;4.90;;;;;;;;;;5094435;28;20540;-67
2023/08/16 08:30:37;;;;;;;4.40;4.10;;;;;;;;;;5095016;28;20419;-67
2023/08/16 08:33:05;;;;;;;4.10;4.00;;;;;;;;;;5094618;28;20826;-67
2023/08/16 08:35:33;;;;;;;4.47;4.17;;;;;;;;;;5094820;28;20419;-67
2023/08/16 08:38:00;;;;;;;4.93;4.53;;;;;;;;;;5094847;28;20483;-67
2023/08/16 08:40:28;;;;;;;4.67;4.47;;;;;;;;;;5094241;28;20777;-67
2023/08/16 08:42:55;;;;;;;4.43;4.33;;;;;;;;;;5094028;28;20426;-67
2023/08/16 08:45:21;;;;;;;4.40;4.20;;;;;;;;;;5094557;28;20847;-67
2023/08/16 08:47:48;;;;;;;11.30;4.20;;;;;;;;;;5094320;28;20458;-67
2023/08/16 08:50:14;;;;;;;4.70;4.40;;;;;;;;;;5094870;28;20529;-67
2023/08/16 08:52:41;;;;;;;6.03;4.30;;;;;;;;;;5094546;28;20477;-67
2023/08/16 08:55:07;;;;;;;4.90;3.87;;;;;;;;;;5094844;28;20427;-67
2023/08/16 08:57:35;;;;;;;6.83;4.10;;;;;;;;;;5094095;28;20421;-67
2023/08/16 09:00:01;;;;;;;4.23;3.83;;;;;;;;;;5094071;28;20420;-67
2023/08/16 09:02:30;;;;;;;4.17;3.97;;;;;;;;;;5094436;28;20424;-67
2023/08/16 09:05:00;;;;;;;3.83;3.53;;;;;;;;;;5093066;28;20421;-67
2023/08/16 09:07:26;;;;;;;4.07;3.97;;;;;;;;;;5094069;28;20491;-67
2023/08/16 09:09:54;;;;;;;4.27;4.07;;;;;;;;;;5094216;28;20436;-67
2023/08/16 09:12:20;;;;;;;3.80;3.33;;;;;;;;;;5094055;28;20498;-67
2023/08/16 09:14:46;;;;;;;4.40;3.90;;;;;;;;;;5093621;28;20401;-67
2023/08/16 09:17:12;;;;;;;4.27;3.87;;;;;;;;;;5092564;28;20445;-67
2023/08/16 09:19:47;;;;;;;3.77;3.43;;;;;;;;;;5092333;28;20920;-67
2023/08/16 09:22:17;;;;;;;3.80;3.70;;;;;;;;;;5092393;28;20449;-67
2023/08/16 09:24:43;;;;;;;8.40;4.30;;;;;;;;;;5093474;28;20974;-67
2023/08/16 09:27:11;;;;;;;4.40;4.00;;;;;;;;;;5093680;28;20486;-67
2023/08/16 09:29:39;;;;;;;3.90;3.70;;;;;;;;;;5092182;28;20435;-67
2023/08/16 09:32:06;;;;;;;4.20;4.00;;;;;;;;;;5093663;28;20445;-67
2023/08/16 09:34:32;;;;;;;3.70;3.60;;;;;;;;;;5093771;28;20462;-67
2023/08/16 09:37:00;;;;;;;3.90;3.70;;;;;;;;;;5093457;28;20421;-67
2023/08/16 09:39:27;;;;;;;4.97;4.47;;;;;;;;;;5092843;28;20440;-67
2023/08/16 09:41:53;;;;;;;6.40;4.53;;;;;;;;;;5091437;28;20417;-67
2023/08/16 09:44:21;;;;;;;4.00;3.90;;;;;;;;;;5092938;28;20425;-67
2023/08/16 09:46:48;;;;;;;6.73;4.20;;;;;;;;;;5091803;28;20413;-67
2023/08/16 09:49:14;;;;;;;5.87;4.47;;;;;;;;;;5091570;28;20409;-67
2023/08/16 09:51:42;;;;;;;5.03;4.10;;;;;;;;;;5092731;28;20516;-67
2023/08/16 09:54:14;;;;;;;4.03;3.93;;;;;;;;;;5092860;28;20413;-67
2023/08/16 09:56:41;;;;;;;4.00;3.73;;;;;;;;;;5093019;28;20410;-67
2023/08/16 09:59:08;;;;;;;3.40;3.30;;;;;;;;;;5091611;28;20475;-67
2023/08/16 10:01:40;;;;;;;4.53;4.07;;;;;;;;;;5093053;28;20459;-67
2023/08/16 10:04:09;;;;;;;3.90;3.70;;;;;;;;;;5093420;28;20434;-67
2023/08/16 10:06:35;;;;;;;4.03;3.57;;;;;;;;;;5092768;28;20444;-67
2023/08/16 10:09:02;;;;;;;4.33;3.80;;;;;;;;;;5093280;28;20425;-67
2023/08/16 10:11:28;;;;;;;4.93;3.60;;;;;;;;;;5092819;28;20413;-67
2023/08/16 10:13:54;;;;;;;4.00;3.80;;;;;;;;;;5092978;28;20429;-67
2023/08/16 10:16:22;;;;;;;4.53;3.73;;;;;;;;;;5092511;28;20856;-67
2023/08/16 10:18:52;;;;;;;3.60;2.97;;;;;;;;;;5091122;28;20460;-67
2023/08/16 10:21:18;;;;;;;3.00;2.90;;;;;;;;;;5092751;28;20435;-67
2023/08/16 10:23:45;;;;;;;3.70;3.60;;;;;;;;;;5092839;28;20512;-67
2023/08/16 10:26:15;;;;;;;3.90;3.60;;;;;;;;;;5091266;28;20425;-67
2023/08/16 10:28:47;;;;;;;3.77;3.30;;;;;;;;;;5092658;28;20872;-67
2023/08/16 10:31:15;;;;;;;3.80;3.70;;;;;;;;;;5091315;28;20441;-67
2023/08/16 10:33:44;;;;;;;2.97;2.77;;;;;;;;;;5091262;28;20770;-67
2023/08/16 10:36:10;;;;;;;3.50;3.23;;;;;;;;;;5092916;28;20437;-67
2023/08/16 10:38:44;;;;;;;3.50;3.40;;;;;;;;;;5092794;28;20504;-67
2023/08/16 10:41:11;;;;;;;3.50;3.40;;;;;;;;;;5092246;28;20441;-67
2023/08/16 10:43:39;;;;;;;4.37;4.07;;;;;;;;;;5092633;28;20425;-67
2023/08/16 10:46:07;;;;;;;3.37;3.20;;;;;;;;;;5092742;28;20437;-67
2023/08/16 10:48:36;;;;;;;4.00;3.20;;;;;;;;;;5092582;28;20556;-67
2023/08/16 10:51:06;;;;;;;3.97;3.67;;;;;;;;;;5092312;28;20832;-67
2023/08/16 10:53:33;;;;;;;11.07;3.70;;;;;;;;;;5092868;28;20496;-67
2023/08/16 10:56:04;;;;;;;3.73;3.53;;;;;;;;;;5092392;28;20409;-67
2023/08/16 10:58:29;;;;;;;3.00;2.90;;;;;;;;;;5090993;28;20468;-68
2023/08/16 11:00:57;;;;;;;6.23;3.50;;;;;;;;;;5091935;28;20460;-68
2023/08/16 11:03:30;;;;;;;3.70;3.60;;;;;;;;;;5092439;28;20886;-68
2023/08/16 11:05:57;;;;;;;4.77;3.43;;;;;;;;;;5092591;28;20431;-68
2023/08/16 11:08:24;;;;;;;3.90;3.70;;;;;;;;;;5092797;28;20475;-68
2023/08/16 11:10:50;;;;;;;3.90;3.60;;;;;;;;;;5091226;28;20416;-67
2023/08/16 11:13:17;;;;;;;3.83;3.47;;;;;;;;;;5092200;28;20429;-68
2023/08/16 11:15:43;;;;;;;7.10;3.50;;;;;;;;;;5092328;28;20405;-68
2023/08/16 11:18:09;;;;;;;4.00;3.70;;;;;;;;;;5092096;28;20432;-68
2023/08/16 11:20:36;;;;;;;5.63;3.77;;;;;;;;;;5092167;28;20437;-68
2023/08/16 11:23:02;;;;;;;4.13;3.63;;;;;;;;;;5092056;28;20418;-68
2023/08/16 11:25:35;;;;;;;3.97;3.67;;;;;;;;;;5092071;28;20578;-68
2023/08/16 11:28:04;;;;;;;4.13;3.63;;;;;;;;;;5092014;28;20457;-68
2023/08/16 11:30:34;;;;;;;4.00;3.30;;;;;;;;;;5092065;28;20448;-68
2023/08/16 11:33:00;;;;;;;8.60;3.30;;;;;;;;;;5092342;28;20405;-68
2023/08/16 11:35:26;;;;;;;3.03;2.90;;;;;;;;;;5092058;28;20417;-68
2023/08/16 11:37:52;;;;;;;3.20;3.10;;;;;;;;;;5090986;28;20784;-68
2023/08/16 11:40:25;;;;;;;3.30;3.10;;;;;;;;;;5092495;28;20413;-68
2023/08/16 11:42:54;;;;;;;5.97;3.23;;;;;;;;;;5091008;28;20444;-68
2023/08/16 11:45:24;;;;;;;3.90;3.60;;;;;;;;;;5092465;28;20470;-68
2023/08/16 11:47:51;;;;;;;4.00;3.33;;;;;;;;;;5091937;28;20962;-68
2023/08/16 11:50:17;;;;;;;3.73;3.40;;;;;;;;;;5092048;28;20920;-68
2023/08/16 11:52:44;;;;;;;3.73;3.53;;;;;;;;;;5093175;28;20428;-68
2023/08/16 11:55:16;;;;;;;6.30;4.10;;;;;;;;;;5095788;28;20962;-63
2023/08/16 11:57:45;;;;;;;3.83;3.40;;;;;;;;;;5095976;28;20566;-63
2023/08/16 12:00:25;;;;;;;3.57;3.47;;;;;;;;;;5095720;28;20908;-63
2023/08/16 12:02:50;;;;;;;3.23;3.10;;;;;;;;;;5095901;28;20490;-63
2023/08/16 12:05:17;;;;;;;3.43;3.20;;;;;;;;;;5095824;28;20417;-63
2023/08/16 12:07:43;;;;;;;3.73;3.53;;;;;;;;;;5095843;28;20468;-63
2023/08/16 12:10:12;;;;;;;3.67;3.43;;;;;;;;;;5095830;28;20789;-63
2023/08/16 12:12:39;;;;;;;4.70;4.33;;;;;;;;;;5095723;28;20455;-63
2023/08/16 12:15:07;;;;;;;11.23;6.23;;;;;;;;;;5095690;28;20420;-65
2023/08/16 12:17:33;;;;;;;4.43;4.10;;;;;;;;;;5095605;28;20440;-64
2023/08/16 12:20:00;;;;;;;15.30;6.03;;;;;;;;;;5095656;28;20520;-65
2023/08/16 12:22:26;;;;;;;9.40;6.40;;;;;;;;;;5095581;28;20559;-64
2023/08/16 12:24:52;;;;;;;4.80;3.90;;;;;;;;;;5095712;28;20190;-64
2023/08/16 12:27:18;;;;;;;4.87;3.53;;;;;;;;;;5095397;28;20469;-63
2023/08/16 12:29:44;;;;;;;3.70;3.40;;;;;;;;;;5095475;28;20492;-64
2023/08/16 12:32:10;;;;;;;3.20;3.00;;;;;;;;;;5095447;28;20485;-64
2023/08/16 12:34:36;;;;;;;3.30;3.13;;;;;;;;;;5095523;28;20964;-66
2023/08/16 12:37:07;;;;;;;4.77;3.70;;;;;;;;;;5094061;28;20717;-64
2023/08/16 12:39:35;;;;;;;3.97;3.57;;;;;;;;;;5095521;28;20182;-65
2023/08/16 12:42:04;;;;;;;7.37;4.23;;;;;;;;;;5095338;28;20444;-64
2023/08/16 12:44:32;;;;;;;7.20;3.70;;;;;;;;;;5095174;28;20496;-64
2023/08/16 12:46:58;;;;;;;4.00;3.20;;;;;;;;;;5094685;28;20453;-64
2023/08/16 12:49:26;;;;;;;3.27;3.17;;;;;;;;;;5095215;28;20453;-64
2023/08/16 12:51:52;;;;;;;3.80;3.50;;;;;;;;;;5095185;28;20224;-65
2023/08/16 12:54:18;;;;;;;4.00;3.27;;;;;;;;;;5095174;28;20956;-64
2023/08/16 12:56:44;;;;;;;4.27;3.60;;;;;;;;;;5095035;28;20207;-64
2023/08/16 12:59:10;;;;;;;3.37;3.27;;;;;;;;;;5095051;28;20179;-64
2023/08/16 13:01:39;;;;;;;3.73;3.40;;;;;;;;;;5094967;28;20412;-64
2023/08/16 13:04:05;;;;;;;3.60;3.50;;;;;;;;;;5094515;28;20243;-63
2023/08/16 13:06:31;;;;;;;5.90;3.27;;;;;;;;;;5094832;28;20437;-64
2023/08/16 13:08:57;;;;;;;4.10;3.70;;;;;;;;;;5094838;28;20954;-64
2023/08/16 13:11:26;;;;;;;4.37;3.97;;;;;;;;;;5094553;28;20437;-64
2023/08/16 13:13:52;;;;;;;5.27;3.80;;;;;;;;;;5093475;28;20444;-64
2023/08/16 13:16:18;;;;;;;8.60;3.73;;;;;;;;;;5094633;28;20907;-64
2023/08/16 13:18:44;;;;;;;3.40;3.30;;;;;;;;;;5094598;28;20494;-64
2023/08/16 13:21:10;;;;;;;5.70;3.50;;;;;;;;;;5094524;28;20421;-64
2023/08/16 13:23:36;;;;;;;4.57;3.60;;;;;;;;;;5094393;28;20438;-64
2023/08/16 13:26:02;;;;;;;3.47;3.30;;;;;;;;;;5094408;28;20828;-64
2023/08/16 13:28:28;;;;;;;3.83;3.53;;;;;;;;;;5094305;28;20838;-65
2023/08/16 13:30:54;;;;;;;3.93;3.57;;;;;;;;;;5094431;28;20904;-64
2023/08/16 13:33:20;;;;;;;4.90;3.40;;;;;;;;;;5094069;28;20457;-65
2023/08/16 13:35:49;;;;;;;4.10;3.90;;;;;;;;;;5093045;28;20826;-64
2023/08/16 13:38:15;;;;;;;6.20;3.80;;;;;;;;;;5094199;28;20441;-63
2023/08/16 13:40:41;;;;;;;3.97;3.83;;;;;;;;;;5094148;28;20470;-64
2023/08/16 13:43:07;;;;;;;3.27;3.20;;;;;;;;;;5094158;28;20520;-64
2023/08/16 13:45:33;;;;;;;6.87;4.00;;;;;;;;;;5094100;28;20543;-64
2023/08/16 13:48:04;;;;;;;4.80;3.83;;;;;;;;;;5092739;28;20617;-64
2023/08/16 13:50:30;;;;;;;3.40;3.10;;;;;;;;;;5094161;28;20476;-64
2023/08/16 13:52:59;;;;;;;4.50;4.10;;;;;;;;;;5094010;28;20796;-64
2023/08/16 13:55:25;;;;;;;3.90;3.70;;;;;;;;;;5093631;28;20915;-64
2023/08/16 13:57:51;;;;;;;4.67;3.87;;;;;;;;;;5093866;28;20463;-64
2023/08/16 14:00:17;;;;;;;3.93;3.77;;;;;;;;;;5093824;28;20405;-64
2023/08/16 14:02:46;;;;;;;4.67;3.60;;;;;;;;;;5093505;28;20445;-64
2023/08/16 14:05:13;;;;;;;10.03;4.30;;;;;;;;;;5093927;28;20900;-64
2023/08/16 14:07:42;;;;;;;3.70;3.60;;;;;;;;;;5093463;28;20467;-64
2023/08/16 14:10:08;;;;;;;3.73;3.50;;;;;;;;;;5093772;28;20421;-64
2023/08/16 14:12:36;;;;;;;4.20;3.83;;;;;;;;;;5093314;28;20952;-64
2023/08/16 14:15:03;;;;;;;4.73;4.17;;;;;;;;;;5091650;28;20444;-64
2023/08/16 14:17:31;;;;;;;3.70;3.60;;;;;;;;;;5092266;28;20430;-64
2023/08/16 14:19:57;;;;;;;3.93;3.73;;;;;;;;;;5093491;28;20450;-64
2023/08/16 14:22:23;;;;;;;3.90;3.70;;;;;;;;;;5093494;28;20414;-64
2023/08/16 14:24:52;;;;;;;4.40;3.63;;;;;;;;;;5093694;28;20771;-64
2023/08/16 14:27:18;;;;;;;4.80;4.03;;;;;;;;;;5093289;28;20461;-64
2023/08/16 14:29:44;;;;;;;4.03;3.80;;;;;;;;;;5093318;28;20405;-63
2023/08/16 14:32:10;;;;;;;4.50;4.03;;;;;;;;;;5093200;28;20902;-64
2023/08/16 14:34:36;;;;;;;3.83;3.63;;;;;;;;;;5093081;28;20221;-64
2023/08/16 14:37:02;;;;;;;7.63;3.67;;;;;;;;;;5093223;28;20413;-64
2023/08/16 14:39:28;;;;;;;5.83;4.00;;;;;;;;;;5093172;28;20478;-63
2023/08/16 14:41:54;;;;;;;4.23;2.97;;;;;;;;;;5092925;28;20413;-63